Time;durP1;ratioP1;P1;durP2;ratioP2;P2;SDS_P1;SDS_P2;PMS_P1;PMS_P2;Temp;Humidity;BMP_temperature;BMP_pressure;BME280_temperature;BME280_humidity;BME280_pressure;Samples;Min_cycle;Max_cycle;Signal;HPM_P1;HPM_P2
2022/05/23 00:00:00;;;;;;;5.60;2.58;;;;;;;13.95;60.52;98543.38;1708274;83;21578;-81
2022/05/23 00:02:27;;;;;;;5.37;2.72;;;;;;;13.95;59.92;98543.38;1730750;83;21094;-81
2022/05/23 00:04:54;;;;;;;6.92;2.80;;;;;;;13.92;60.53;98543.92;1732129;83;21031;-81
2022/05/23 00:07:37;;;;;;;5.90;2.60;;;;;;;13.92;60.42;98537.38;1732929;83;21592;-82
2022/05/23 00:10:06;;;;;;;5.37;2.92;;;;;;;13.93;60.25;98544.79;1731190;83;21491;-80
2022/05/23 00:12:32;;;;;;;5.62;2.90;;;;;;;13.92;60.92;98539.16;1730690;83;21003;-82
2022/05/23 00:14:59;;;;;;;6.67;2.90;;;;;;;13.91;60.77;98540.09;1732868;83;21110;-81
2022/05/23 00:17:26;;;;;;;6.60;3.00;;;;;;;13.87;60.64;98544.61;1726324;83;21096;-81
2022/05/23 00:19:52;;;;;;;8.83;2.70;;;;;;;13.84;61.12;98547.83;1732124;83;21048;-82
2022/05/23 00:22:21;;;;;;;4.87;2.80;;;;;;;13.83;61.58;98540.92;1726079;83;21009;-81
2022/05/23 00:24:48;;;;;;;7.08;3.05;;;;;;;13.83;60.61;98544.84;1726024;83;20962;-82
2022/05/23 00:27:19;;;;;;;6.03;3.00;;;;;;;13.78;61.21;98548.95;1725606;83;21030;-81
2022/05/23 00:29:47;;;;;;;5.87;3.05;;;;;;;13.76;62.55;98542.95;1725785;83;21018;-81
2022/05/23 00:35:18;;;;;;;5.35;3.10;;;;;;;13.65;60.47;98557.00;1725568;83;21010;-80
2022/05/23 00:37:49;;;;;;;5.95;3.35;;;;;;;13.58;60.81;98555.11;1725520;83;21041;-81
2022/05/23 00:43:13;;;;;;;6.90;3.02;;;;;;;13.50;61.09;98554.61;1723299;83;21102;-81
2022/05/23 00:43:27;;;;;;;9.48;3.10;;;;;;;13.45;62.48;98559.19;1714258;83;20971;-82
2022/05/23 00:46:01;;;;;;;9.23;3.10;;;;;;;13.36;61.99;98560.45;1717393;83;21006;-80
2022/05/23 00:48:30;;;;;;;9.50;3.30;;;;;;;13.29;60.64;98561.20;1717434;83;21046;-80
2022/05/23 00:51:08;;;;;;;9.08;3.02;;;;;;;13.17;61.01;98556.50;1717406;83;21006;-81
2022/05/23 00:53:43;;;;;;;8.05;3.05;;;;;;;13.10;60.88;98569.42;1717296;83;21074;-80
2022/05/23 00:56:14;;;;;;;7.08;2.98;;;;;;;13.04;63.51;98571.83;1714448;83;21011;-80
2022/05/23 00:58:46;;;;;;;5.30;3.10;;;;;;;13.00;62.42;98566.83;1717490;83;21439;-82
2022/05/23 01:01:19;;;;;;;10.05;3.33;;;;;;;12.94;62.03;98577.91;1715711;83;21598;-80
2022/05/23 01:03:46;;;;;;;8.80;3.55;;;;;;;12.85;60.01;98573.09;1717716;83;20959;-80
2022/05/23 01:06:13;;;;;;;7.30;3.27;;;;;;;12.77;60.11;98579.53;1717155;83;21054;-81
2022/05/23 01:08:43;;;;;;;6.12;3.05;;;;;;;12.70;62.47;98577.66;1717423;83;21003;-81
2022/05/23 01:11:11;;;;;;;7.22;3.15;;;;;;;12.67;62.35;98572.12;1716727;83;21013;-81
2022/05/23 01:13:38;;;;;;;5.85;3.17;;;;;;;12.63;63.03;98565.77;1719781;83;21011;-79
2022/05/23 01:16:06;;;;;;;7.70;3.10;;;;;;;12.60;61.27;98565.91;1727427;83;21058;-82
2022/05/23 01:18:34;;;;;;;9.30;3.42;;;;;;;12.53;62.29;98572.69;1727450;83;21053;-81
2022/05/23 01:21:04;;;;;;;7.17;3.10;;;;;;;12.50;63.30;98579.32;1727167;82;21648;-80
2022/05/23 01:23:45;;;;;;;8.85;3.58;;;;;;;12.47;64.65;98576.86;1726525;83;21030;-80
2022/05/23 01:26:14;;;;;;;8.13;3.47;;;;;;;12.45;64.43;98574.73;1724837;83;21039;-81
2022/05/23 01:28:44;;;;;;;7.35;3.20;;;;;;;12.43;64.56;98567.90;1727592;83;21253;-81
2022/05/23 01:31:15;;;;;;;5.12;3.17;;;;;;;12.41;63.78;98569.26;1727697;83;21036;-81
2022/05/23 01:33:42;;;;;;;6.75;3.50;;;;;;;12.39;63.96;98573.69;1727498;83;21046;-81
2022/05/23 01:36:14;;;;;;;6.45;3.50;;;;;;;12.37;64.37;98576.81;1727468;83;21499;-81
2022/05/23 01:38:42;;;;;;;8.23;3.22;;;;;;;12.39;64.53;98581.97;1726864;83;21019;-80
2022/05/23 01:41:17;;;;;;;7.22;3.25;;;;;;;12.39;65.05;98575.45;1719892;83;21043;-82
2022/05/23 01:43:45;;;;;;;5.35;2.83;;;;;;;12.37;65.72;98570.30;1714554;84;21075;-82
2022/05/23 01:46:32;;;;;;;7.22;2.90;;;;;;;12.38;65.36;98573.31;1714853;83;21350;-81
2022/05/23 01:49:13;;;;;;;6.40;2.77;;;;;;;12.34;65.07;98572.58;1714626;84;21096;-82
2022/05/23 01:51:40;;;;;;;6.45;2.87;;;;;;;12.29;66.79;98577.12;1701794;84;21499;-82
2022/05/23 01:54:06;;;;;;;6.78;2.90;;;;;;;12.29;66.27;98576.28;1700402;84;21023;-81
2022/05/23 01:56:34;;;;;;;5.78;3.12;;;;;;;12.29;66.67;98571.06;1700294;84;21003;-81
2022/05/23 02:01:47;;;;;;;7.17;3.20;;;;;;;12.22;66.77;98578.75;1700402;84;21052;-80
2022/05/23 02:04:16;;;;;;;6.53;3.15;;;;;;;12.10;66.04;98583.54;1701114;84;21080;-81
2022/05/23 02:06:44;;;;;;;7.25;2.95;;;;;;;12.02;66.66;98587.36;1700420;84;21060;-81
2022/05/23 02:09:26;;;;;;;4.42;3.00;;;;;;;11.93;67.95;98585.48;1705587;84;21039;-81
2022/05/23 02:11:52;;;;;;;7.90;3.12;;;;;;;11.81;65.87;98575.97;1702765;84;21507;-81
2022/05/23 02:14:21;;;;;;;9.88;3.20;;;;;;;11.79;65.63;98584.30;1712381;83;21024;-82
2022/05/23 02:16:47;;;;;;;6.12;2.90;;;;;;;11.68;65.60;98581.66;1714589;84;21016;-80
2022/05/23 02:19:14;;;;;;;9.15;2.80;;;;;;;11.60;66.59;98584.13;1696030;83;21024;-81
2022/05/23 02:21:42;;;;;;;8.40;2.62;;;;;;;11.54;65.61;98591.74;1699005;83;21616;-81
2022/05/23 02:24:09;;;;;;;8.83;3.27;;;;;;;11.45;66.30;98583.80;1694128;84;21012;-81
2022/05/23 02:26:36;;;;;;;9.98;3.47;;;;;;;11.43;66.98;98580.86;1705345;84;21532;-80
2022/05/23 02:29:11;;;;;;;6.37;3.33;;;;;;;11.41;67.25;98582.22;1700551;84;21031;-81
2022/05/23 02:31:39;;;;;;;10.50;3.95;;;;;;;11.38;65.44;98578.44;1710269;84;21067;-80
2022/05/23 02:34:10;;;;;;;7.72;3.62;;;;;;;11.30;67.61;98572.20;1711761;84;20992;-81
2022/05/23 02:36:46;;;;;;;6.37;2.98;;;;;;;11.28;66.26;98577.92;1700910;84;21007;-81
2022/05/23 02:39:14;;;;;;;6.62;2.85;;;;;;;11.22;65.97;98570.34;1712984;84;21026;-81
2022/05/23 02:41:41;;;;;;;7.97;3.65;;;;;;;11.21;67.11;98567.33;1696108;83;20999;-82
2022/05/23 02:44:08;;;;;;;8.08;3.65;;;;;;;11.15;68.69;98570.16;1708572;84;20974;-81
2022/05/23 02:46:36;;;;;;;7.65;3.50;;;;;;;11.13;70.83;98568.06;1705575;84;20984;-81
2022/05/23 02:49:07;;;;;;;6.37;3.10;;;;;;;11.10;69.08;98570.75;1715128;84;21499;-80
2022/05/23 02:51:34;;;;;;;8.30;4.05;;;;;;;11.09;70.00;98566.47;1684326;84;21023;-80
2022/05/23 02:54:04;;;;;;;6.45;3.42;;;;;;;11.02;69.75;98560.65;1714980;84;21080;-81
2022/05/23 02:56:34;;;;;;;8.03;3.55;;;;;;;10.97;69.59;98558.65;1710555;83;21084;-81
2022/05/23 02:59:02;;;;;;;17.07;3.55;;;;;;;10.98;69.50;98561.63;1703061;84;21015;-82
2022/05/23 03:01:30;;;;;;;6.85;3.60;;;;;;;10.97;72.47;98570.81;1709328;84;20980;-81
2022/05/23 03:03:57;;;;;;;9.58;3.58;;;;;;;10.94;71.24;98580.84;1714660;84;21060;-81
2022/05/23 03:06:23;;;;;;;10.80;3.80;;;;;;;10.97;70.71;98585.12;1693174;84;20981;-80
2022/05/23 03:08:50;;;;;;;10.63;3.95;;;;;;;10.98;70.65;98579.00;1709729;83;21020;-81
2022/05/23 03:11:18;;;;;;;11.65;4.10;;;;;;;11.00;70.79;98581.97;1716731;84;21042;-82
2022/05/23 03:13:47;;;;;;;7.95;3.55;;;;;;;11.01;69.62;98571.10;1708080;84;21025;-82
2022/05/23 03:16:15;;;;;;;5.80;3.40;;;;;;;10.99;70.03;98585.45;1707816;84;21092;-81
2022/05/23 03:18:43;;;;;;;9.35;4.37;;;;;;;10.99;71.66;98591.95;1700863;83;21058;-81
2022/05/23 03:26:58;;;;;;;13.30;3.60;;;;;;;10.99;70.59;98591.95;1699047;84;21130;-81
2022/05/23 03:29:14;;;;;;;6.67;3.35;;;;;;;11.13;71.31;98578.01;1705536;83;21003;-79
2022/05/23 03:31:41;;;;;;;6.95;3.42;;;;;;;11.24;70.40;98582.84;1695153;84;20966;-79
2022/05/23 03:34:09;;;;;;;7.58;3.30;;;;;;;11.29;69.82;98586.11;1710454;84;21059;-80
2022/05/23 03:36:36;;;;;;;8.90;3.30;;;;;;;11.35;69.77;98581.14;1698683;84;21504;-80
2022/05/23 03:39:03;;;;;;;6.35;3.12;;;;;;;11.41;70.65;98587.88;1708681;84;21046;-81
2022/05/23 03:41:30;;;;;;;5.42;3.37;;;;;;;11.46;70.78;98583.34;1707563;83;21026;-81
2022/05/23 03:43:57;;;;;;;9.20;3.17;;;;;;;11.54;70.65;98586.08;1705752;84;21024;-81
2022/05/23 03:46:24;;;;;;;5.92;3.17;;;;;;;11.64;70.03;98587.88;1712631;84;21000;-80
2022/05/23 03:48:51;;;;;;;7.65;3.85;;;;;;;11.72;70.75;98578.02;1702987;84;21012;-81
2022/05/23 03:51:18;;;;;;;7.87;3.47;;;;;;;11.81;70.21;98569.00;1701860;84;21542;-80
2022/05/23 03:53:44;;;;;;;13.28;3.83;;;;;;;11.85;70.36;98565.83;1685818;84;21085;-80
2022/05/23 03:56:11;;;;;;;11.48;3.70;;;;;;;11.89;70.69;98573.95;1713959;84;20984;-80
2022/05/23 03:58:46;;;;;;;9.90;3.80;;;;;;;11.95;69.19;98575.02;1705725;84;21052;-81
2022/05/23 04:01:23;;;;;;;9.98;4.20;;;;;;;11.94;69.01;98577.23;1707880;83;21044;-79
2022/05/23 04:03:55;;;;;;;9.63;2.87;;;;;;;11.91;69.34;98588.60;1700643;84;21016;-80
2022/05/23 04:06:22;;;;;;;5.47;3.20;;;;;;;11.89;69.69;98586.51;1713385;84;21055;-81
2022/05/23 04:08:50;;;;;;;11.22;3.50;;;;;;;11.91;68.58;98592.97;1703356;84;21023;-81
2022/05/23 04:11:17;;;;;;;8.53;3.50;;;;;;;11.93;68.77;98585.95;1700725;84;21519;-80
2022/05/23 04:13:44;;;;;;;4.95;2.80;;;;;;;11.96;67.89;98581.06;1698005;84;20964;-80
2022/05/23 04:16:11;;;;;;;7.20;3.50;;;;;;;11.93;69.84;98575.52;1698674;84;21074;-81
2022/05/23 04:18:38;;;;;;;10.48;2.98;;;;;;;11.94;68.25;98576.77;1702779;82;20962;-81
2022/05/23 04:21:05;;;;;;;4.85;3.00;;;;;;;11.95;68.43;98577.61;1710354;84;21087;-79
2022/05/23 04:23:33;;;;;;;8.45;3.00;;;;;;;11.96;69.03;98585.84;1714190;84;21016;-81
2022/05/23 04:26:08;;;;;;;5.58;3.37;;;;;;;12.00;69.12;98586.58;1708672;83;21012;-81
2022/05/23 04:28:41;;;;;;;10.13;3.30;;;;;;;12.03;69.46;98580.77;1710253;84;20933;-80
2022/05/23 04:31:09;;;;;;;11.25;3.20;;;;;;;12.12;69.05;98573.90;1708977;84;20992;-79
2022/05/23 04:36:24;;;;;;;8.78;3.47;;;;;;;12.27;68.99;98564.61;1712696;83;21507;-81
2022/05/23 04:38:51;;;;;;;8.95;3.62;;;;;;;12.38;68.76;98563.34;1689124;84;21062;-80
2022/05/23 04:41:17;;;;;;;7.47;3.83;;;;;;;12.47;70.23;98566.42;1692130;83;21020;-82
2022/05/23 04:43:49;;;;;;;8.78;4.78;;;;;;;12.55;68.21;98567.39;1706710;83;21008;-81
2022/05/23 04:46:17;;;;;;;10.08;5.12;;;;;;;12.51;68.86;98561.48;1719942;83;21044;-81
2022/05/23 04:51:55;;;;;;;10.73;5.00;;;;;;;12.61;68.86;98570.20;1679619;83;21161;-79
2022/05/23 04:54:24;;;;;;;11.65;5.10;;;;;;;12.69;68.43;98570.29;1705340;83;21024;-81
2022/05/23 04:56:52;;;;;;;14.58;5.08;;;;;;;12.81;67.53;98559.80;1720328;83;21090;-80
2022/05/23 04:59:19;;;;;;;11.10;4.62;;;;;;;12.86;68.00;98562.20;1718342;83;21071;-81
2022/05/23 05:01:47;;;;;;;13.05;4.42;;;;;;;12.88;67.99;98557.30;1720142;83;21047;-81
2022/05/23 05:04:14;;;;;;;6.47;3.22;;;;;;;12.91;67.04;98554.57;1712395;83;21458;-81
2022/05/23 05:06:40;;;;;;;13.40;3.37;;;;;;;12.90;67.46;98556.77;1719784;83;21104;-80
2022/05/23 05:09:08;;;;;;;8.88;3.90;;;;;;;13.00;67.35;98552.01;1690912;83;20991;-80
2022/05/23 05:11:38;;;;;;;9.48;3.67;;;;;;;13.07;68.21;98553.45;1700486;83;21035;-81
2022/05/23 05:14:13;;;;;;;8.73;3.40;;;;;;;13.07;68.29;98555.19;1705473;83;21099;-79
2022/05/23 05:16:41;;;;;;;7.03;3.08;;;;;;;13.16;68.17;98561.78;1714373;83;21040;-80
2022/05/23 05:19:08;;;;;;;15.23;3.83;;;;;;;13.22;68.04;98562.81;1714848;83;21003;-80
2022/05/23 05:21:53;;;;;;;8.43;3.72;;;;;;;13.31;67.60;98570.28;1711095;83;21131;-79
2022/05/23 05:24:34;;;;;;;12.05;3.65;;;;;;;13.41;67.03;98577.21;1653777;83;21031;-79
2022/05/23 05:27:14;;;;;;;8.80;3.45;;;;;;;13.39;66.88;98569.91;1718209;83;22125;-80
2022/05/23 05:29:41;;;;;;;8.65;3.27;;;;;;;13.44;66.69;98570.09;1715268;83;21007;-79
2022/05/23 05:32:14;;;;;;;11.50;4.03;;;;;;;13.48;66.11;98568.20;1714831;83;21039;-79
2022/05/23 05:34:46;;;;;;;7.47;3.92;;;;;;;13.48;66.26;98566.42;1708059;83;21032;-80
2022/05/23 05:37:21;;;;;;;6.87;3.27;;;;;;;13.50;66.06;98570.28;1708723;83;20994;-80
2022/05/23 05:39:49;;;;;;;8.55;4.03;;;;;;;13.45;66.12;98572.24;1692162;83;21520;-80
2022/05/23 05:42:21;;;;;;;8.25;3.67;;;;;;;13.43;66.07;98569.72;1718808;82;21067;-80
2022/05/23 05:44:56;;;;;;;9.00;3.70;;;;;;;13.40;66.25;98576.84;1707617;83;21040;-80
2022/05/23 05:47:23;;;;;;;12.53;3.85;;;;;;;13.41;66.04;98571.99;1713159;83;20999;-80
2022/05/23 05:49:53;;;;;;;8.05;3.98;;;;;;;13.41;66.40;98570.69;1722877;83;21035;-79
2022/05/23 05:52:24;;;;;;;8.68;3.45;;;;;;;13.41;65.54;98571.99;1722265;83;21193;-78
2022/05/23 05:54:56;;;;;;;12.58;3.75;;;;;;;13.44;65.99;98570.56;1706323;82;21003;-80
2022/05/23 05:57:24;;;;;;;8.40;3.35;;;;;;;13.48;65.61;98560.36;1723717;82;21095;-78
2022/05/23 05:59:52;;;;;;;12.03;4.30;;;;;;;13.62;65.17;98559.73;1711529;82;20969;-80
2022/05/23 06:02:19;;;;;;;8.98;3.77;;;;;;;13.68;65.18;98560.75;1690606;83;21019;-79
2022/05/23 06:04:47;;;;;;;6.12;4.00;;;;;;;13.75;64.92;98557.39;1718462;82;21134;-79
2022/05/23 06:12:58;;;;;;;9.80;4.05;;;;;;;13.85;65.35;98554.76;1718640;82;21051;-79
2022/05/23 06:15:33;;;;;;;11.18;3.65;;;;;;;13.92;65.47;98560.06;1687107;82;21011;-79
2022/05/23 06:18:00;;;;;;;5.50;3.30;;;;;;;14.02;65.69;98569.16;1719188;82;21059;-79
2022/05/23 06:20:27;;;;;;;8.23;3.65;;;;;;;14.13;65.39;98562.97;1712763;82;21031;-79
2022/05/23 06:22:54;;;;;;;7.00;3.72;;;;;;;14.31;65.04;98568.23;1719425;83;21106;-80
2022/05/23 06:25:22;;;;;;;8.73;3.77;;;;;;;14.46;64.65;98568.80;1716770;82;21067;-79
2022/05/23 06:27:51;;;;;;;13.55;3.37;;;;;;;14.59;64.18;98559.90;1715758;83;21046;-80
2022/05/23 06:30:23;;;;;;;7.70;4.00;;;;;;;14.71;63.71;98561.06;1711627;83;21601;-79
2022/05/23 06:32:50;;;;;;;7.17;4.05;;;;;;;14.82;63.42;98550.91;1716181;82;21209;-78
2022/05/23 06:35:19;;;;;;;11.05;3.67;;;;;;;14.91;62.97;98555.64;1716433;83;21026;-80
2022/05/23 06:37:47;;;;;;;7.87;3.45;;;;;;;14.99;62.97;98560.48;1743984;80;21090;-79
2022/05/23 06:40:34;;;;;;;10.38;4.20;;;;;;;15.12;62.51;98560.72;1734002;80;28119;-80
2022/05/23 06:43:16;;;;;;;5.40;3.42;;;;;;;15.28;62.24;98555.05;1738188;82;21030;-80
2022/05/23 06:45:48;;;;;;;7.78;3.50;;;;;;;15.38;61.83;98558.47;1738985;81;21072;-79
2022/05/23 06:48:17;;;;;;;14.45;3.62;;;;;;;15.47;61.51;98556.68;1707709;82;21050;-78
2022/05/23 06:50:50;;;;;;;9.58;4.62;;;;;;;15.58;61.05;98548.23;1746209;81;20992;-78
2022/05/23 06:53:20;;;;;;;6.65;3.47;;;;;;;15.63;61.32;98548.36;1745560;80;21628;-78
2022/05/23 06:55:59;;;;;;;11.00;3.87;;;;;;;15.77;61.04;98541.56;1722479;80;21673;-79
2022/05/23 06:58:26;;;;;;;6.92;3.72;;;;;;;15.90;61.25;98536.03;1745478;80;21517;-78
2022/05/23 07:00:54;;;;;;;6.47;3.52;;;;;;;16.06;60.94;98538.16;1745862;82;20986;-79
2022/05/23 07:03:24;;;;;;;6.22;3.58;;;;;;;16.20;60.67;98535.23;1739852;81;21023;-80
2022/05/23 07:14:13;;;;;;;7.97;3.52;;;;;;;16.74;58.99;98532.95;1742330;81;21098;-79
2022/05/23 07:16:39;;;;;;;6.47;3.55;;;;;;;16.81;58.95;98538.26;1746752;82;20996;-79
2022/05/23 07:19:08;;;;;;;6.95;3.58;;;;;;;16.85;58.93;98533.64;1744937;82;21130;-79
2022/05/23 07:21:36;;;;;;;8.18;3.70;;;;;;;16.94;58.88;98534.89;1707735;83;21108;-79
2022/05/23 07:24:08;;;;;;;8.60;3.10;;;;;;;17.10;58.59;98533.02;1717195;82;21043;-79
2022/05/23 07:26:37;;;;;;;6.28;3.33;;;;;;;17.29;58.57;98535.38;1716803;82;20997;-79
2022/05/23 07:29:05;;;;;;;12.37;3.65;;;;;;;17.46;58.29;98540.89;1718389;82;21587;-80
2022/05/23 07:31:32;;;;;;;8.35;3.92;;;;;;;17.62;57.17;98544.72;1718210;82;20984;-79
2022/05/23 07:33:59;;;;;;;9.35;3.87;;;;;;;17.69;56.85;98542.93;1712017;82;21047;-80
2022/05/23 07:36:26;;;;;;;8.50;3.77;;;;;;;17.85;57.02;98540.20;1715546;82;21572;-79
2022/05/23 07:38:53;;;;;;;6.03;2.80;;;;;;;18.04;56.43;98543.80;1719670;83;21051;-79
2022/05/23 07:41:25;;;;;;;9.38;3.00;;;;;;;18.22;55.67;98544.42;1694425;82;21129;-79
2022/05/23 07:43:53;;;;;;;7.62;3.20;;;;;;;18.36;55.59;98534.27;1715445;82;21032;-79
2022/05/23 07:46:21;;;;;;;11.08;3.02;;;;;;;18.57;55.49;98544.34;1716072;83;21051;-79
2022/05/23 07:48:51;;;;;;;9.48;3.00;;;;;;;18.73;52.07;98542.37;1715651;83;21019;-79
2022/05/23 07:51:23;;;;;;;3.80;2.37;;;;;;;18.79;53.96;98530.13;1720471;82;21031;-80
2022/05/23 08:02:11;;;;;;;6.22;2.58;;;;;;;19.48;51.61;98534.58;1720392;83;21064;-80
2022/05/23 08:04:39;;;;;;;3.92;2.55;;;;;;;19.61;49.53;98537.18;1718822;82;21031;-80
2022/05/23 08:07:09;;;;;;;5.00;2.85;;;;;;;19.65;50.24;98536.01;1692348;83;21015;-80
2022/05/23 08:09:39;;;;;;;10.03;2.65;;;;;;;19.72;51.06;98531.19;1716066;82;21112;-83
2022/05/23 08:12:11;;;;;;;7.55;2.52;;;;;;;19.84;51.10;98534.26;1719983;83;21577;-80
2022/05/23 08:14:38;;;;;;;6.33;2.08;;;;;;;20.00;50.61;98538.44;1714063;83;20996;-80
2022/05/23 08:17:07;;;;;;;5.80;3.10;;;;;;;20.10;50.55;98533.33;1713328;82;21016;-82
2022/05/23 08:19:39;;;;;;;6.00;2.65;;;;;;;20.25;50.42;98538.78;1716930;82;21085;-82
2022/05/23 08:22:08;;;;;;;4.12;2.62;;;;;;;20.37;48.87;98530.43;1715197;82;21572;-82
2022/05/23 08:24:37;;;;;;;10.05;2.55;;;;;;;20.55;47.94;98530.85;1713788;83;21031;-83
2022/05/23 08:27:04;;;;;;;7.80;2.25;;;;;;;20.81;49.62;98530.23;1708118;83;21017;-81
2022/05/23 08:29:33;;;;;;;6.17;2.65;;;;;;;21.05;48.39;98521.76;1711610;83;21941;-79
2022/05/23 08:32:02;;;;;;;6.95;2.10;;;;;;;21.24;48.23;98526.92;1716256;83;21602;-82
2022/05/23 08:34:31;;;;;;;6.10;2.60;;;;;;;21.33;47.22;98527.54;1705650;82;21033;-80
2022/05/23 08:36:58;;;;;;;5.58;2.10;;;;;;;21.32;45.56;98523.20;1710422;83;21028;-80
2022/05/23 08:39:26;;;;;;;6.08;2.47;;;;;;;21.41;46.62;98520.33;1715990;82;21083;-82
2022/05/23 08:41:54;;;;;;;8.30;2.27;;;;;;;21.45;45.48;98517.84;1717240;82;21067;-82
2022/05/23 08:44:48;;;;;;;5.33;2.70;;;;;;;21.54;45.92;98517.58;1702543;82;21254;-78
2022/05/23 08:47:33;;;;;;;8.50;2.42;;;;;;;21.62;45.12;98523.09;1710095;83;21457;-80
2022/05/23 08:50:18;;;;;;;5.80;2.15;;;;;;;21.55;44.98;98513.49;1718825;83;21004;-80
2022/05/23 08:53:03;;;;;;;5.97;2.10;;;;;;;21.46;43.79;98504.95;1663679;83;21023;-83
2022/05/23 08:55:46;;;;;;;5.72;2.58;;;;;;;21.37;44.31;98505.19;1712108;82;21065;-81
2022/05/23 08:58:47;;;;;;;6.60;3.20;;;;;;;21.29;43.27;98504.09;1702885;82;21024;-81
2022/05/23 09:01:19;;;;;;;5.85;2.20;;;;;;;21.17;43.67;98504.11;1715060;83;21513;-80
2022/05/23 09:04:04;;;;;;;7.12;2.12;;;;;;;21.24;43.78;98499.17;1697300;83;20993;-81
2022/05/23 09:06:37;;;;;;;5.47;2.20;;;;;;;21.42;43.52;98507.45;1720913;82;21126;-82
2022/05/23 09:09:08;;;;;;;5.00;2.15;;;;;;;21.55;41.92;98502.08;1716213;83;21518;-81
2022/05/23 09:11:44;;;;;;;4.75;1.90;;;;;;;21.70;43.38;98504.80;1719373;83;21079;-82
2022/05/23 09:14:14;;;;;;;5.42;1.70;;;;;;;21.92;41.99;98500.42;1742301;82;20979;-81
2022/05/23 09:16:49;;;;;;;7.65;2.50;;;;;;;22.05;40.97;98499.30;1741100;82;21008;-81
2022/05/23 09:19:27;;;;;;;8.35;2.20;;;;;;;22.28;42.51;98483.34;1744766;82;20997;-81
2022/05/23 09:22:13;;;;;;;8.50;1.98;;;;;;;22.41;41.20;98495.09;1744223;82;21129;-80
2022/05/23 09:24:56;;;;;;;3.52;1.55;;;;;;;22.53;40.18;98491.91;1743516;82;21005;-81
2022/05/23 09:27:45;;;;;;;5.83;1.40;;;;;;;22.70;40.30;98492.66;1746639;81;21098;-83
2022/05/23 09:30:21;;;;;;;5.95;1.72;;;;;;;22.84;40.44;98479.55;1739596;82;21071;-82
2022/05/23 09:32:52;;;;;;;5.03;1.70;;;;;;;23.02;40.13;98481.97;1743434;82;20996;-81
2022/05/23 09:35:31;;;;;;;3.52;1.55;;;;;;;22.96;38.13;98471.88;1745936;82;21146;-79
2022/05/23 09:38:18;;;;;;;4.35;2.05;;;;;;;22.89;37.51;98468.55;1735918;82;21033;-80
2022/05/23 09:41:02;;;;;;;7.37;1.92;;;;;;;22.79;38.08;98461.37;1731505;82;21589;-80
2022/05/23 09:49:21;;;;;;;5.70;1.80;;;;;;;22.99;35.67;98466.78;1750268;81;21018;-83
2022/05/23 09:52:22;;;;;;;4.70;1.70;;;;;;;22.92;37.05;98457.20;1749554;81;20996;-81
2022/05/23 09:54:56;;;;;;;3.65;1.65;;;;;;;23.05;36.37;98461.47;1742466;81;20964;-81
2022/05/23 09:57:34;;;;;;;5.95;1.50;;;;;;;23.09;36.79;98458.91;1753425;81;21599;-81
2022/05/23 10:00:22;;;;;;;3.85;1.50;;;;;;;23.12;36.92;98446.69;1747679;81;21016;-80
2022/05/23 10:03:01;;;;;;;3.62;1.30;;;;;;;23.21;36.29;98445.90;1752967;81;21003;-80
2022/05/23 10:05:39;;;;;;;3.85;1.60;;;;;;;23.18;36.26;98445.69;1718383;83;22318;-80
2022/05/23 10:08:16;;;;;;;5.20;1.52;;;;;;;23.23;35.74;98442.62;1726699;82;21031;-79
2022/05/23 10:10:56;;;;;;;4.12;1.65;;;;;;;23.39;34.56;98436.31;1713657;82;21014;-79
2022/05/23 10:13:34;;;;;;;5.45;1.55;;;;;;;23.56;35.55;98441.46;1723881;81;21027;-80
2022/05/23 10:16:12;;;;;;;4.55;2.33;;;;;;;23.76;34.15;98434.86;1720953;82;21068;-80
2022/05/23 10:18:50;;;;;;;4.75;1.60;;;;;;;23.76;34.42;98436.19;1722197;83;20968;-85
2022/05/23 10:21:37;;;;;;;3.33;1.42;;;;;;;23.81;34.04;98443.26;1724972;82;21602;-83
2022/05/23 10:24:20;;;;;;;5.78;1.75;;;;;;;23.68;33.60;98432.06;1724347;81;22216;-82
2022/05/23 10:27:04;;;;;;;2.70;1.40;;;;;;;23.66;33.72;98426.05;1737755;80;21125;-82
2022/05/23 10:29:57;;;;;;;4.65;1.42;;;;;;;23.58;33.57;98425.41;1746292;82;21003;-83
2022/05/23 10:32:46;;;;;;;31.75;18.77;;;;;;;23.54;33.39;98416.05;1702297;83;20984;-84
2022/05/23 10:35:32;;;;;;;5.65;2.95;;;;;;;23.50;33.77;98418.13;1740004;82;20980;-82
2022/05/23 10:42:07;;;;;;;3.47;1.70;;;;;;;23.61;34.24;98420.64;1714586;83;21013;-82
2022/05/23 10:43:21;;;;;;;4.72;1.70;;;;;;;23.84;34.24;98419.11;1751367;80;21150;-81
2022/05/23 10:46:01;;;;;;;15.68;1.82;;;;;;;24.10;33.75;98419.38;1748245;81;21011;-82
2022/05/23 10:48:42;;;;;;;4.30;1.60;;;;;;;24.13;30.17;98419.58;1754804;81;21336;-82
2022/05/23 10:51:33;;;;;;;5.42;1.70;;;;;;;24.29;32.53;98411.89;1748834;81;21008;-82
2022/05/23 10:54:14;;;;;;;3.83;1.98;;;;;;;24.38;32.06;98411.02;1750335;81;21011;-84
2022/05/23 10:57:07;;;;;;;5.62;1.98;;;;;;;24.49;31.69;98406.52;1741068;81;21697;-83
2022/05/23 11:00:03;;;;;;;3.22;1.50;;;;;;;24.53;32.40;98406.14;1735505;82;21369;-82
2022/05/23 11:03:02;;;;;;;6.30;1.72;;;;;;;24.48;31.56;98406.19;1732591;82;20979;-79
2022/05/23 11:05:54;;;;;;;2.77;1.65;;;;;;;24.36;31.29;98402.36;1729537;82;21055;-83
2022/05/23 11:09:11;;;;;;;4.45;1.40;;;;;;;24.56;31.45;98408.49;1725608;81;21102;-80
2022/05/23 11:11:51;;;;;;;4.25;1.50;;;;;;;24.61;31.04;98407.58;1724583;82;21078;-80
2022/05/23 11:14:53;;;;;;;5.50;1.50;;;;;;;24.63;30.67;98408.77;1724591;81;21000;-81
2022/05/23 11:17:57;;;;;;;2.75;1.50;;;;;;;24.59;30.53;98412.67;1723913;81;21574;-78
2022/05/23 11:20:36;;;;;;;5.37;1.52;;;;;;;24.55;29.82;98406.83;1719034;82;21489;-79
2022/05/23 11:23:45;;;;;;;3.67;1.75;;;;;;;24.53;28.96;98402.16;1728323;82;21546;-79
2022/05/23 11:26:29;;;;;;;3.00;1.45;;;;;;;24.51;29.46;98411.23;1724199;82;20949;-79
2022/05/23 11:34:52;;;;;;;6.67;1.67;;;;;;;24.50;30.42;98401.09;1721790;82;21025;-80
2022/05/23 11:39:58;;;;;;;3.05;1.10;;;;;;;24.86;29.63;98395.11;1746711;81;21558;-79
2022/05/23 11:42:34;;;;;;;3.50;1.40;;;;;;;25.06;29.95;98391.38;1752210;81;21012;-80
2022/05/23 11:47:59;;;;;;;6.55;1.57;;;;;;;25.52;29.05;98398.89;1749081;80;21005;-80
2022/05/23 11:50:32;;;;;;;3.45;1.50;;;;;;;25.62;27.92;98394.84;1754009;80;20987;-81
2022/05/23 11:53:10;;;;;;;2.60;1.30;;;;;;;25.69;27.75;98390.59;1746332;80;21098;-79
2022/05/23 11:56:00;;;;;;;7.83;1.72;;;;;;;25.80;28.52;98392.17;1750635;81;20983;-81
2022/05/23 11:58:48;;;;;;;6.92;1.57;;;;;;;26.16;28.94;98391.70;1747788;81;21109;-80
2022/05/23 12:01:21;;;;;;;5.65;1.75;;;;;;;26.68;28.59;98384.23;1755114;80;21018;-81
2022/05/23 12:03:57;;;;;;;4.03;1.37;;;;;;;27.19;27.91;98381.09;1751741;81;21032;-84
2022/05/23 12:06:32;;;;;;;3.58;1.30;;;;;;;27.52;27.28;98377.23;1748681;81;20975;-81
2022/05/23 12:09:16;;;;;;;2.10;1.07;;;;;;;28.03;27.22;98375.78;1752308;80;21398;-83
2022/05/23 12:11:46;;;;;;;2.50;1.35;;;;;;;28.31;26.60;98366.07;1748401;81;21044;-81
2022/05/23 12:14:26;;;;;;;2.95;1.45;;;;;;;28.18;25.35;98370.61;1751569;80;21046;-83
2022/05/23 12:17:05;;;;;;;8.70;2.00;;;;;;;28.21;26.56;98372.92;1755621;80;20999;-82
2022/05/23 12:19:44;;;;;;;4.33;1.30;;;;;;;27.96;24.98;98379.63;1751558;80;21528;-83
2022/05/23 12:22:27;;;;;;;4.15;1.32;;;;;;;27.89;26.03;98371.11;1749085;80;20964;-82
2022/05/23 12:25:03;;;;;;;2.98;1.20;;;;;;;27.77;26.20;98370.57;1751041;80;21095;-84
2022/05/23 12:27:45;;;;;;;4.65;1.37;;;;;;;27.65;26.02;98371.90;1756330;81;20999;-87
2022/05/23 12:30:24;;;;;;;7.10;1.32;;;;;;;27.65;26.60;98377.23;1727852;81;21036;-83
2022/05/23 12:33:02;;;;;;;2.98;1.20;;;;;;;27.58;26.71;98373.07;1736265;81;21606;-84
2022/05/23 12:35:34;;;;;;;4.03;1.35;;;;;;;28.04;25.60;98372.63;1753949;80;21023;-84
2022/05/23 12:38:30;;;;;;;5.45;1.35;;;;;;;28.76;25.17;98374.84;1753047;80;20972;-84
2022/05/23 12:41:27;;;;;;;8.25;1.65;;;;;;;29.11;24.55;98369.21;1756153;81;20960;-85
2022/05/23 12:44:31;;;;;;;4.72;1.40;;;;;;;29.99;25.05;98371.20;1755672;80;21080;-83
2022/05/23 12:47:06;;;;;;;3.02;1.15;;;;;;;30.68;23.95;98370.55;1753802;81;21485;-84
2022/05/23 12:50:20;;;;;;;6.20;1.72;;;;;;;30.92;23.93;98367.28;1760626;80;20992;-86
2022/05/23 12:53:19;;;;;;;10.40;4.58;;;;;;;31.47;23.62;98368.56;1755510;81;20995;-88
2022/05/23 12:56:03;;;;;;;4.62;1.20;;;;;;;32.59;23.07;98357.68;1735352;81;21024;-88
2022/05/23 12:59:07;;;;;;;4.45;1.20;;;;;;;32.47;20.90;98354.68;1753696;81;21023;-88
2022/05/23 13:01:38;;;;;;;7.20;1.50;;;;;;;31.29;21.37;98357.39;1760673;79;21039;-82